Terminal Aerodrome Forecast
Issued by NWS

Home | Current Version | Previous Version | Graphics & Text | Print | Product List | Glossary On
Versions: 1 2 3 4 5 6 7 8 9 10 11 12 13
632
FTUS43 KICT 211128
TAFSLN
TAF
KSLN 211128Z 2112/2212 07007KT P6SM BKN120
     FM211400 06013KT P6SM OVC080
     FM211700 05017G22KT P6SM VCSH SCT025 OVC040
      TEMPO 2117/2121 5SM RA OVC025
     FM212100 05017KT P6SM VCSH OVC040
     FM220200 01013KT 6SM -RA OVC025=

USA.gov is the U.S. government's official web portal to all federal, state and local government web resources and services.